sensor_id;sensor_type;location;lat;lon;timestamp;pressure;altitude;pressure_sealevel;temperature;humidity
3150;BME280;32503;47.748;8.960;2023-05-22T00:00:29;96491.06;;;20.14;61.60
3150;BME280;32503;47.748;8.960;2023-05-22T00:02:57;96481.78;;;20.07;61.60
3150;BME280;32503;47.748;8.960;2023-05-22T00:05:25;96475.59;;;20.03;61.65
3150;BME280;32503;47.748;8.960;2023-05-22T00:07:52;96477.41;;;20.10;61.43
3150;BME280;32503;47.748;8.960;2023-05-22T00:10:19;96482.13;;;20.10;61.42
3150;BME280;32503;47.748;8.960;2023-05-22T00:12:46;96485.88;;;19.99;61.58
3150;BME280;32503;47.748;8.960;2023-05-22T00:15:14;96477.44;;;19.90;61.94
3150;BME280;32503;47.748;8.960;2023-05-22T00:17:41;96475.91;;;19.89;62.06
3150;BME280;32503;47.748;8.960;2023-05-22T00:20:09;96488.59;;;19.83;62.12
3150;BME280;32503;47.748;8.960;2023-05-22T00:22:36;96470.84;;;19.67;62.47
3150;BME280;32503;47.748;8.960;2023-05-22T00:25:05;96481.13;;;19.63;62.54
3150;BME280;32503;47.748;8.960;2023-05-22T00:27:33;96484.78;;;19.57;62.75
3150;BME280;32503;47.748;8.960;2023-05-22T00:30:00;96482.09;;;19.53;62.85
3150;BME280;32503;47.748;8.960;2023-05-22T00:32:29;96490.34;;;19.53;62.44
3150;BME280;32503;47.748;8.960;2023-05-22T00:34:56;96491.53;;;19.52;62.43
3150;BME280;32503;47.748;8.960;2023-05-22T00:37:23;96496.31;;;19.48;62.45
3150;BME280;32503;47.748;8.960;2023-05-22T00:39:51;96501.09;;;19.44;62.39
3150;BME280;32503;47.748;8.960;2023-05-22T00:42:18;96491.84;;;19.38;62.49
3150;BME280;32503;47.748;8.960;2023-05-22T00:44:45;96498.97;;;19.31;62.57
3150;BME280;32503;47.748;8.960;2023-05-22T00:47:13;96491.25;;;19.26;62.77
3150;BME280;32503;47.748;8.960;2023-05-22T00:49:42;96489.72;;;19.25;62.62
3150;BME280;32503;47.748;8.960;2023-05-22T00:52:09;96485.19;;;19.15;62.68
3150;BME280;32503;47.748;8.960;2023-05-22T00:54:37;96491.44;;;19.16;62.86
3150;BME280;32503;47.748;8.960;2023-05-22T00:57:04;96489.88;;;19.14;63.16
3150;BME280;32503;47.748;8.960;2023-05-22T00:59:32;96497.28;;;19.18;62.72
3150;BME280;32503;47.748;8.960;2023-05-22T01:01:59;96493.84;;;19.13;62.69
3150;BME280;32503;47.748;8.960;2023-05-22T01:04:27;96505.91;;;19.16;62.73
3150;BME280;32503;47.748;8.960;2023-05-22T01:06:59;96502.53;;;19.08;63.19
3150;BME280;32503;47.748;8.960;2023-05-22T01:09:27;96506.13;;;19.05;63.22
3150;BME280;32503;47.748;8.960;2023-05-22T01:12:00;96507.38;;;19.01;63.40
3150;BME280;32503;47.748;8.960;2023-05-22T01:14:40;96513.22;;;19.03;63.28
3150;BME280;32503;47.748;8.960;2023-05-22T01:17:22;96514.31;;;19.05;63.24
3150;BME280;32503;47.748;8.960;2023-05-22T01:20:09;96515.94;;;19.03;63.38
3150;BME280;32503;47.748;8.960;2023-05-22T01:23:17;96518.22;;;19.08;63.07
3150;BME280;32503;47.748;8.960;2023-05-22T01:26:02;96526.91;;;19.03;63.03
3150;BME280;32503;47.748;8.960;2023-05-22T01:28:45;96511.91;;;18.87;63.37
3150;BME280;32503;47.748;8.960;2023-05-22T01:31:18;96525.06;;;18.96;63.36
3150;BME280;32503;47.748;8.960;2023-05-22T01:33:53;96530.94;;;18.94;63.58
3150;BME280;32503;47.748;8.960;2023-05-22T01:36:24;96525.47;;;18.94;63.64
3150;BME280;32503;47.748;8.960;2023-05-22T01:38:53;96508.41;;;18.87;63.74
3150;BME280;32503;47.748;8.960;2023-05-22T01:41:24;96523.56;;;18.91;64.09
3150;BME280;32503;47.748;8.960;2023-05-22T01:43:51;96528.69;;;18.89;64.12
3150;BME280;32503;47.748;8.960;2023-05-22T01:46:20;96533.81;;;18.87;64.19
3150;BME280;32503;47.748;8.960;2023-05-22T01:48:47;96531.13;;;18.84;64.48
3150;BME280;32503;47.748;8.960;2023-05-22T01:51:19;96531.91;;;18.84;64.41
3150;BME280;32503;47.748;8.960;2023-05-22T01:53:56;96529.97;;;18.85;64.45
3150;BME280;32503;47.748;8.960;2023-05-22T01:56:35;96531.06;;;18.87;64.30
3150;BME280;32503;47.748;8.960;2023-05-22T01:59:13;96500.81;;;18.71;64.20
3150;BME280;32503;47.748;8.960;2023-05-22T02:01:44;96532.69;;;18.81;64.26
3150;BME280;32503;47.748;8.960;2023-05-22T02:04:12;96529.25;;;18.77;64.64
3150;BME280;32503;47.748;8.960;2023-05-22T02:06:41;96531.28;;;18.73;64.55
3150;BME280;32503;47.748;8.960;2023-05-22T02:09:10;96521.97;;;18.67;64.74
3150;BME280;32503;47.748;8.960;2023-05-22T02:11:39;96532.22;;;18.63;64.93
3150;BME280;32503;47.748;8.960;2023-05-22T02:14:08;96531.06;;;18.64;64.91
3150;BME280;32503;47.748;8.960;2023-05-22T02:16:36;96533.00;;;18.63;64.69
3150;BME280;32503;47.748;8.960;2023-05-22T02:19:10;96525.19;;;18.62;64.73
3150;BME280;32503;47.748;8.960;2023-05-22T02:21:37;96531.53;;;18.59;64.64
3150;BME280;32503;47.748;8.960;2023-05-22T02:24:05;96516.69;;;18.56;64.87
3150;BME280;32503;47.748;8.960;2023-05-22T02:26:32;96527.56;;;18.60;64.55
3150;BME280;32503;47.748;8.960;2023-05-22T02:28:59;96520.56;;;18.59;64.49
3150;BME280;32503;47.748;8.960;2023-05-22T02:31:26;96524.53;;;18.54;64.65
3150;BME280;32503;47.748;8.960;2023-05-22T02:33:53;96523.78;;;18.53;64.77
3150;BME280;32503;47.748;8.960;2023-05-22T02:36:22;96522.16;;;18.56;64.59
3150;BME280;32503;47.748;8.960;2023-05-22T02:38:50;96522.56;;;18.54;64.59
3150;BME280;32503;47.748;8.960;2023-05-22T02:41:17;96526.97;;;18.48;64.74
3150;BME280;32503;47.748;8.960;2023-05-22T02:43:44;96521.22;;;18.43;64.95
3150;BME280;32503;47.748;8.960;2023-05-22T02:46:11;96521.25;;;18.39;65.04
3150;BME280;32503;47.748;8.960;2023-05-22T02:48:38;96512.38;;;18.31;64.97
3150;BME280;32503;47.748;8.960;2023-05-22T02:51:05;96535.66;;;18.43;64.88
3150;BME280;32503;47.748;8.960;2023-05-22T02:53:34;96535.66;;;18.43;64.89
3150;BME280;32503;47.748;8.960;2023-05-22T02:56:06;96525.53;;;18.40;65.03
3150;BME280;32503;47.748;8.960;2023-05-22T02:58:33;96532.66;;;18.34;65.36
3150;BME280;32503;47.748;8.960;2023-05-22T03:01:00;96537.03;;;18.28;65.52
3150;BME280;32503;47.748;8.960;2023-05-22T03:03:28;96532.38;;;18.25;65.63
3150;BME280;32503;47.748;8.960;2023-05-22T03:05:56;96523.81;;;18.23;65.62
3150;BME280;32503;47.748;8.960;2023-05-22T03:08:23;96528.16;;;18.20;65.94
3150;BME280;32503;47.748;8.960;2023-05-22T03:10:54;96517.34;;;18.13;66.17
3150;BME280;32503;47.748;8.960;2023-05-22T03:13:21;96527.88;;;18.14;66.18
3150;BME280;32503;47.748;8.960;2023-05-22T03:15:48;96523.94;;;18.15;66.03
3150;BME280;32503;47.748;8.960;2023-05-22T03:18:15;96526.66;;;18.15;66.03
3150;BME280;32503;47.748;8.960;2023-05-22T03:20:45;96519.38;;;18.05;66.33
3150;BME280;32503;47.748;8.960;2023-05-22T03:23:12;96525.13;;;18.14;66.03
3150;BME280;32503;47.748;8.960;2023-05-22T03:25:39;96518.97;;;18.07;66.10
3150;BME280;32503;47.748;8.960;2023-05-22T03:28:07;96529.03;;;18.13;65.91
3150;BME280;32503;47.748;8.960;2023-05-22T03:30:34;96530.22;;;18.12;65.92
3150;BME280;32503;47.748;8.960;2023-05-22T03:33:02;96535.69;;;18.12;66.01
3150;BME280;32503;47.748;8.960;2023-05-22T03:35:28;96540.44;;;18.08;66.06
3150;BME280;32503;47.748;8.960;2023-05-22T03:37:55;96544.03;;;18.02;66.21
3150;BME280;32503;47.748;8.960;2023-05-22T03:40:22;96538.63;;;17.98;66.48
3150;BME280;32503;47.748;8.960;2023-05-22T03:42:49;96543.28;;;18.01;66.44
3150;BME280;32503;47.748;8.960;2023-05-22T03:45:18;96542.41;;;18.08;66.10
3150;BME280;32503;47.748;8.960;2023-05-22T03:47:50;96551.03;;;18.06;66.26
3150;BME280;32503;47.748;8.960;2023-05-22T03:50:18;96544.44;;;18.04;66.58
3150;BME280;32503;47.748;8.960;2023-05-22T03:52:45;96547.88;;;18.08;66.47
3150;BME280;32503;47.748;8.960;2023-05-22T03:55:14;96541.63;;;18.07;66.68
3150;BME280;32503;47.748;8.960;2023-05-22T03:57:41;96546.28;;;18.10;66.63
3150;BME280;32503;47.748;8.960;2023-05-22T04:00:09;96548.53;;;18.15;66.59
3150;BME280;32503;47.748;8.960;2023-05-22T04:02:39;96549.28;;;18.19;66.23
3150;BME280;32503;47.748;8.960;2023-05-22T04:05:09;96552.84;;;18.16;66.42
3150;BME280;32503;47.748;8.960;2023-05-22T04:07:36;96554.81;;;18.16;66.40
3150;BME280;32503;47.748;8.960;2023-05-22T04:10:04;96552.38;;;18.22;66.18
3150;BME280;32503;47.748;8.960;2023-05-22T04:12:32;96553.91;;;18.23;66.29
3150;BME280;32503;47.748;8.960;2023-05-22T04:14:59;96554.63;;;18.30;66.06
3150;BME280;32503;47.748;8.960;2023-05-22T04:17:30;96552.19;;;18.36;66.07
3150;BME280;32503;47.748;8.960;2023-05-22T04:19:59;96561.91;;;18.41;65.81
3150;BME280;32503;47.748;8.960;2023-05-22T04:22:26;96568.50;;;18.43;65.93
3150;BME280;32503;47.748;8.960;2023-05-22T04:24:55;96573.50;;;18.48;65.67
3150;BME280;32503;47.748;8.960;2023-05-22T04:27:22;96569.94;;;18.51;65.39
3150;BME280;32503;47.748;8.960;2023-05-22T04:29:49;96577.53;;;18.67;65.30
3150;BME280;32503;47.748;8.960;2023-05-22T04:32:17;96576.16;;;18.79;64.80
3150;BME280;32503;47.748;8.960;2023-05-22T04:34:49;96578.28;;;18.95;64.36
3150;BME280;32503;47.748;8.960;2023-05-22T04:37:18;96576.56;;;19.05;64.26
3150;BME280;32503;47.748;8.960;2023-05-22T04:39:45;96582.16;;;19.21;63.86
3150;BME280;32503;47.748;8.960;2023-05-22T04:42:13;96582.63;;;19.40;63.30
3150;BME280;32503;47.748;8.960;2023-05-22T04:44:40;96588.59;;;19.55;62.94
3150;BME280;32503;47.748;8.960;2023-05-22T04:47:08;96589.47;;;19.72;62.35
3150;BME280;32503;47.748;8.960;2023-05-22T04:49:38;96586.13;;;19.84;62.01
3150;BME280;32503;47.748;8.960;2023-05-22T04:52:07;96588.59;;;19.98;61.56
3150;BME280;32503;47.748;8.960;2023-05-22T04:54:37;96599.19;;;20.16;61.17
3150;BME280;32503;47.748;8.960;2023-05-22T04:57:04;96606.69;;;20.32;60.92
3150;BME280;32503;47.748;8.960;2023-05-22T04:59:34;96599.63;;;20.51;60.23
3150;BME280;32503;47.748;8.960;2023-05-22T05:02:03;96578.84;;;20.50;60.08
3150;BME280;32503;47.748;8.960;2023-05-22T05:04:30;96607.06;;;20.87;59.61
3150;BME280;32503;47.748;8.960;2023-05-22T05:06:57;96605.19;;;21.00;58.80
3150;BME280;32503;47.748;8.960;2023-05-22T05:09:24;96607.50;;;21.18;58.51
3150;BME280;32503;47.748;8.960;2023-05-22T05:11:56;96608.59;;;21.37;57.97
3150;BME280;32503;47.748;8.960;2023-05-22T05:14:25;96601.44;;;21.56;57.43
3150;BME280;32503;47.748;8.960;2023-05-22T05:16:54;96605.50;;;21.81;56.86
3150;BME280;32503;47.748;8.960;2023-05-22T05:19:21;96592.88;;;21.96;56.15
3150;BME280;32503;47.748;8.960;2023-05-22T05:21:48;96599.66;;;22.21;55.48
3150;BME280;32503;47.748;8.960;2023-05-22T05:24:16;96606.00;;;22.47;54.84
3150;BME280;32503;47.748;8.960;2023-05-22T05:26:43;96594.00;;;22.54;53.95
3150;BME280;32503;47.748;8.960;2023-05-22T05:29:11;96606.56;;;22.81;53.76
3150;BME280;32503;47.748;8.960;2023-05-22T05:31:38;96607.44;;;23.03;53.37
3150;BME280;32503;47.748;8.960;2023-05-22T05:34:08;96602.13;;;23.22;52.93
3150;BME280;32503;47.748;8.960;2023-05-22T05:36:36;96609.34;;;23.41;52.29
3150;BME280;32503;47.748;8.960;2023-05-22T05:39:03;96615.88;;;23.70;52.11
3150;BME280;32503;47.748;8.960;2023-05-22T05:41:30;96610.72;;;23.94;50.92
3150;BME280;32503;47.748;8.960;2023-05-22T05:43:57;96610.06;;;24.12;50.35
3150;BME280;32503;47.748;8.960;2023-05-22T05:46:27;96617.13;;;24.35;49.97
3150;BME280;32503;47.748;8.960;2023-05-22T05:48:54;96618.00;;;24.54;49.69
3150;BME280;32503;47.748;8.960;2023-05-22T05:51:21;96613.03;;;24.71;49.34
3150;BME280;32503;47.748;8.960;2023-05-22T05:53:48;96619.06;;;24.88;48.40
3150;BME280;32503;47.748;8.960;2023-05-22T05:56:15;96622.34;;;24.95;48.13
3150;BME280;32503;47.748;8.960;2023-05-22T05:58:42;96612.50;;;25.04;48.19
3150;BME280;32503;47.748;8.960;2023-05-22T06:01:09;96617.16;;;25.16;47.29
3150;BME280;32503;47.748;8.960;2023-05-22T06:03:38;96620.75;;;25.26;47.62
3150;BME280;32503;47.748;8.960;2023-05-22T06:06:06;96616.78;;;25.36;47.36
3150;BME280;32503;47.748;8.960;2023-05-22T06:08:33;96617.38;;;25.49;47.07
3150;BME280;32503;47.748;8.960;2023-05-22T06:11:00;96620.00;;;25.53;46.84
3150;BME280;32503;47.748;8.960;2023-05-22T06:13:28;96620.63;;;25.66;47.20
3150;BME280;32503;47.748;8.960;2023-05-22T06:15:55;96612.19;;;25.79;46.46
3150;BME280;32503;47.748;8.960;2023-05-22T06:18:22;96624.63;;;25.93;46.17
3150;BME280;32503;47.748;8.960;2023-05-22T06:20:51;96625.88;;;26.10;46.04
3150;BME280;32503;47.748;8.960;2023-05-22T06:23:19;96615.41;;;26.15;45.82
3150;BME280;32503;47.748;8.960;2023-05-22T06:25:46;96631.66;;;26.40;45.58
3150;BME280;32503;47.748;8.960;2023-05-22T06:28:13;96621.00;;;26.48;45.04
3150;BME280;32503;47.748;8.960;2023-05-22T06:30:42;96623.75;;;26.57;44.85
3150;BME280;32503;47.748;8.960;2023-05-22T06:33:09;96621.41;;;26.74;44.47
3150;BME280;32503;47.748;8.960;2023-05-22T06:35:36;96616.13;;;26.85;43.85
3150;BME280;32503;47.748;8.960;2023-05-22T06:38:04;96613.91;;;26.99;43.08
3150;BME280;32503;47.748;8.960;2023-05-22T06:40:31;96618.75;;;27.13;42.40
3150;BME280;32503;47.748;8.960;2023-05-22T06:42:58;96617.47;;;27.23;42.18
3150;BME280;32503;47.748;8.960;2023-05-22T06:45:28;96622.34;;;27.38;41.25
3150;BME280;32503;47.748;8.960;2023-05-22T06:47:55;96622.94;;;27.42;40.91
3150;BME280;32503;47.748;8.960;2023-05-22T06:50:22;96617.47;;;27.48;41.55
3150;BME280;32503;47.748;8.960;2023-05-22T06:52:49;96619.13;;;27.54;41.51
3150;BME280;32503;47.748;8.960;2023-05-22T06:55:17;96617.53;;;27.63;41.24
3150;BME280;32503;47.748;8.960;2023-05-22T06:57:44;96610.59;;;27.82;41.06
3150;BME280;32503;47.748;8.960;2023-05-22T07:00:12;96614.50;;;27.99;40.16
3150;BME280;32503;47.748;8.960;2023-05-22T07:02:40;96614.00;;;28.16;40.76
3150;BME280;32503;47.748;8.960;2023-05-22T07:05:07;96619.41;;;28.34;40.45
3150;BME280;32503;47.748;8.960;2023-05-22T07:07:34;96624.09;;;28.43;39.93
3150;BME280;32503;47.748;8.960;2023-05-22T07:10:01;96622.47;;;28.36;39.34
3150;BME280;32503;47.748;8.960;2023-05-22T07:12:30;96620.06;;;28.44;39.58
3150;BME280;32503;47.748;8.960;2023-05-22T07:14:57;96614.09;;;28.51;39.27
3150;BME280;32503;47.748;8.960;2023-05-22T07:17:25;96616.59;;;28.64;38.91
3150;BME280;32503;47.748;8.960;2023-05-22T07:19:52;96607.69;;;28.75;38.19
3150;BME280;32503;47.748;8.960;2023-05-22T07:22:20;96620.47;;;28.67;38.72
3150;BME280;32503;47.748;8.960;2023-05-22T07:24:47;96624.66;;;28.62;38.41
3150;BME280;32503;47.748;8.960;2023-05-22T07:27:14;96612.88;;;28.67;39.03
3150;BME280;32503;47.748;8.960;2023-05-22T07:29:43;96617.53;;;28.91;38.91
3150;BME280;32503;47.748;8.960;2023-05-22T07:32:10;96611.50;;;29.13;37.95
3150;BME280;32503;47.748;8.960;2023-05-22T07:34:37;96610.31;;;29.35;38.34
3150;BME280;32503;47.748;8.960;2023-05-22T07:37:07;96615.13;;;29.55;37.81
3150;BME280;32503;47.748;8.960;2023-05-22T07:39:35;96612.28;;;29.49;37.07
3150;BME280;32503;47.748;8.960;2023-05-22T07:42:03;96614.69;;;29.41;37.44
3150;BME280;32503;47.748;8.960;2023-05-22T07:44:30;96604.94;;;29.31;37.78
3150;BME280;32503;47.748;8.960;2023-05-22T07:46:59;96613.59;;;29.54;37.70
3150;BME280;32503;47.748;8.960;2023-05-22T07:49:26;96618.66;;;29.55;37.25
3150;BME280;32503;47.748;8.960;2023-05-22T07:51:53;96616.94;;;29.78;37.36
3150;BME280;32503;47.748;8.960;2023-05-22T07:54:20;96611.75;;;29.71;36.39
3150;BME280;32503;47.748;8.960;2023-05-22T07:56:47;96611.97;;;29.47;36.95
3150;BME280;32503;47.748;8.960;2023-05-22T07:59:15;96614.34;;;29.34;36.80
3150;BME280;32503;47.748;8.960;2023-05-22T08:01:44;96605.78;;;29.37;37.04
3150;BME280;32503;47.748;8.960;2023-05-22T08:04:12;96612.63;;;29.57;37.30
3150;BME280;32503;47.748;8.960;2023-05-22T08:06:39;96613.94;;;29.41;35.99
3150;BME280;32503;47.748;8.960;2023-05-22T08:09:10;96610.25;;;29.49;36.88
3150;BME280;32503;47.748;8.960;2023-05-22T08:11:37;96608.28;;;29.56;35.68
3150;BME280;32503;47.748;8.960;2023-05-22T08:14:07;96603.13;;;29.69;36.38
3150;BME280;32503;47.748;8.960;2023-05-22T08:16:34;96606.13;;;29.86;36.53
3150;BME280;32503;47.748;8.960;2023-05-22T08:19:01;96612.84;;;30.00;36.07
3150;BME280;32503;47.748;8.960;2023-05-22T08:21:30;96605.81;;;30.31;34.70
3150;BME280;32503;47.748;8.960;2023-05-22T08:23:59;96605.53;;;30.55;34.95
3150;BME280;32503;47.748;8.960;2023-05-22T08:26:27;96604.56;;;30.63;35.40
3150;BME280;32503;47.748;8.960;2023-05-22T08:28:54;96598.34;;;30.74;34.88
3150;BME280;32503;47.748;8.960;2023-05-22T08:31:21;96599.56;;;30.68;34.40
3150;BME280;32503;47.748;8.960;2023-05-22T08:33:48;96600.81;;;30.67;35.04
3150;BME280;32503;47.748;8.960;2023-05-22T08:36:16;96603.06;;;30.62;35.02
3150;BME280;32503;47.748;8.960;2023-05-22T08:38:44;96594.59;;;30.51;34.53
3150;BME280;32503;47.748;8.960;2023-05-22T08:41:12;96600.50;;;30.59;34.95
3150;BME280;32503;47.748;8.960;2023-05-22T08:43:40;96601.09;;;30.42;34.14
3150;BME280;32503;47.748;8.960;2023-05-22T08:46:09;96591.97;;;30.16;34.75
3150;BME280;32503;47.748;8.960;2023-05-22T08:48:36;96589.75;;;30.20;36.05
3150;BME280;32503;47.748;8.960;2023-05-22T08:51:04;96586.09;;;30.34;35.35
3150;BME280;32503;47.748;8.960;2023-05-22T08:53:34;96598.00;;;30.35;35.12
3150;BME280;32503;47.748;8.960;2023-05-22T08:56:07;96594.28;;;30.43;35.17
3150;BME280;32503;47.748;8.960;2023-05-22T08:58:35;96597.53;;;30.68;35.47
3150;BME280;32503;47.748;8.960;2023-05-22T09:01:04;96587.81;;;30.95;34.60
3150;BME280;32503;47.748;8.960;2023-05-22T09:03:31;96586.34;;;31.00;33.87
3150;BME280;32503;47.748;8.960;2023-05-22T09:06:00;96591.41;;;30.96;33.88
3150;BME280;32503;47.748;8.960;2023-05-22T09:08:29;96591.94;;;31.06;33.16
3150;BME280;32503;47.748;8.960;2023-05-22T09:10:56;96590.19;;;31.03;33.15
3150;BME280;32503;47.748;8.960;2023-05-22T09:13:28;96576.75;;;31.07;33.22
3150;BME280;32503;47.748;8.960;2023-05-22T09:15:59;96577.03;;;31.20;32.99
3150;BME280;32503;47.748;8.960;2023-05-22T09:18:33;96573.25;;;31.23;33.47
3150;BME280;32503;47.748;8.960;2023-05-22T09:21:01;96581.66;;;31.29;33.00
3150;BME280;32503;47.748;8.960;2023-05-22T09:23:29;96566.06;;;31.54;32.85
3150;BME280;32503;47.748;8.960;2023-05-22T09:25:58;96571.97;;;30.81;33.33
3150;BME280;32503;47.748;8.960;2023-05-22T09:28:31;96574.06;;;30.92;33.94
3150;BME280;32503;47.748;8.960;2023-05-22T09:30:58;96578.47;;;30.67;33.28
3150;BME280;32503;47.748;8.960;2023-05-22T09:33:29;96574.88;;;30.29;34.11
3150;BME280;32503;47.748;8.960;2023-05-22T09:35:57;96570.66;;;30.39;34.55
3150;BME280;32503;47.748;8.960;2023-05-22T09:38:27;96554.03;;;30.50;32.97
3150;BME280;32503;47.748;8.960;2023-05-22T09:40:55;96573.75;;;30.41;33.19
3150;BME280;32503;47.748;8.960;2023-05-22T09:43:23;96576.47;;;30.35;34.12
3150;BME280;32503;47.748;8.960;2023-05-22T09:45:59;96576.91;;;30.02;34.09
3150;BME280;32503;47.748;8.960;2023-05-22T09:48:33;96570.91;;;29.62;35.56
3150;BME280;32503;47.748;8.960;2023-05-22T09:51:01;96568.34;;;29.59;34.65
3150;BME280;32503;47.748;8.960;2023-05-22T09:53:32;96569.28;;;29.97;35.32
3150;BME280;32503;47.748;8.960;2023-05-22T09:55:59;96571.00;;;30.20;34.18
3150;BME280;32503;47.748;8.960;2023-05-22T09:58:30;96566.53;;;29.76;34.90
3150;BME280;32503;47.748;8.960;2023-05-22T10:01:00;96560.06;;;29.91;34.32
3150;BME280;32503;47.748;8.960;2023-05-22T10:03:30;96566.50;;;29.97;33.18
3150;BME280;32503;47.748;8.960;2023-05-22T10:06:00;96571.75;;;30.21;34.23
3150;BME280;32503;47.748;8.960;2023-05-22T10:08:34;96566.19;;;30.47;33.94
3150;BME280;32503;47.748;8.960;2023-05-22T10:11:02;96563.50;;;30.64;33.31
3150;BME280;32503;47.748;8.960;2023-05-22T10:13:32;96567.63;;;29.84;34.39
3150;BME280;32503;47.748;8.960;2023-05-22T10:16:03;96558.53;;;29.43;36.14
3150;BME280;32503;47.748;8.960;2023-05-22T10:18:32;96563.59;;;29.03;35.72
3150;BME280;32503;47.748;8.960;2023-05-22T10:20:59;96549.56;;;28.98;36.01
3150;BME280;32503;47.748;8.960;2023-05-22T10:23:27;96550.22;;;29.07;36.70
3150;BME280;32503;47.748;8.960;2023-05-22T10:25:55;96559.31;;;29.23;35.95
3150;BME280;32503;47.748;8.960;2023-05-22T10:28:29;96553.00;;;29.07;34.27
3150;BME280;32503;47.748;8.960;2023-05-22T10:31:03;96552.75;;;29.26;35.45
3150;BME280;32503;47.748;8.960;2023-05-22T10:33:39;96547.16;;;29.67;35.41
3150;BME280;32503;47.748;8.960;2023-05-22T10:36:12;96534.50;;;29.92;34.65
3150;BME280;32503;47.748;8.960;2023-05-22T10:39:00;96540.50;;;30.11;34.36
3150;BME280;32503;47.748;8.960;2023-05-22T10:41:30;96548.47;;;30.24;34.25
3150;BME280;32503;47.748;8.960;2023-05-22T10:43:57;96521.25;;;30.39;34.38
3150;BME280;32503;47.748;8.960;2023-05-22T10:46:25;96530.13;;;30.81;33.61
3150;BME280;32503;47.748;8.960;2023-05-22T10:48:57;96525.88;;;30.91;32.81
3150;BME280;32503;47.748;8.960;2023-05-22T10:51:24;96528.78;;;30.71;32.18
3150;BME280;32503;47.748;8.960;2023-05-22T10:53:56;96537.88;;;30.02;33.37
3150;BME280;32503;47.748;8.960;2023-05-22T10:56:32;96525.06;;;29.37;35.00
3150;BME280;32503;47.748;8.960;2023-05-22T10:59:02;96523.34;;;29.66;35.75
3150;BME280;32503;47.748;8.960;2023-05-22T11:01:33;96519.34;;;29.93;35.25
3150;BME280;32503;47.748;8.960;2023-05-22T11:04:10;96521.06;;;29.91;31.72
3150;BME280;32503;47.748;8.960;2023-05-22T11:06:38;96514.06;;;29.75;32.81
3150;BME280;32503;47.748;8.960;2023-05-22T11:09:25;96512.91;;;29.61;33.67
3150;BME280;32503;47.748;8.960;2023-05-22T11:12:15;96513.28;;;29.07;34.32
3150;BME280;32503;47.748;8.960;2023-05-22T11:14:47;96508.91;;;29.41;35.23
3150;BME280;32503;47.748;8.960;2023-05-22T11:17:20;96509.38;;;29.40;33.75
3150;BME280;32503;47.748;8.960;2023-05-22T11:19:57;96500.28;;;29.39;32.21
3150;BME280;32503;47.748;8.960;2023-05-22T11:22:33;96507.16;;;29.44;34.15
3150;BME280;32503;47.748;8.960;2023-05-22T11:25:05;96495.47;;;28.99;34.33
3150;BME280;32503;47.748;8.960;2023-05-22T11:27:33;96495.72;;;29.16;33.84
3150;BME280;32503;47.748;8.960;2023-05-22T11:30:01;96488.31;;;29.33;32.69
3150;BME280;32503;47.748;8.960;2023-05-22T11:32:30;96488.13;;;29.37;33.63
3150;BME280;32503;47.748;8.960;2023-05-22T11:34:57;96494.28;;;29.73;34.19
3150;BME280;32503;47.748;8.960;2023-05-22T11:37:24;96496.09;;;30.02;32.91
3150;BME280;32503;47.748;8.960;2023-05-22T11:39:56;96482.97;;;30.40;33.33
3150;BME280;32503;47.748;8.960;2023-05-22T11:42:23;96487.91;;;30.24;32.39
3150;BME280;32503;47.748;8.960;2023-05-22T11:44:50;96486.75;;;30.05;32.17
3150;BME280;32503;47.748;8.960;2023-05-22T11:47:17;96486.22;;;30.01;32.72
3150;BME280;32503;47.748;8.960;2023-05-22T11:49:46;96492.75;;;29.98;33.03
3150;BME280;32503;47.748;8.960;2023-05-22T11:52:15;96489.44;;;29.94;33.21
3150;BME280;32503;47.748;8.960;2023-05-22T11:54:44;96489.56;;;29.79;32.96
3150;BME280;32503;47.748;8.960;2023-05-22T11:57:12;96481.28;;;29.38;34.38
3150;BME280;32503;47.748;8.960;2023-05-22T11:59:43;96489.44;;;29.00;34.43
3150;BME280;32503;47.748;8.960;2023-05-22T12:02:10;96483.72;;;29.30;34.12
3150;BME280;32503;47.748;8.960;2023-05-22T12:04:38;96483.16;;;29.05;33.57
3150;BME280;32503;47.748;8.960;2023-05-22T12:07:06;96487.88;;;28.99;33.43
3150;BME280;32503;47.748;8.960;2023-05-22T12:09:34;96488.59;;;29.35;33.40
3150;BME280;32503;47.748;8.960;2023-05-22T12:12:01;96481.09;;;29.21;33.66
3150;BME280;32503;47.748;8.960;2023-05-22T12:14:30;96484.97;;;29.29;34.40
3150;BME280;32503;47.748;8.960;2023-05-22T12:16:57;96479.59;;;29.72;34.30
3150;BME280;32503;47.748;8.960;2023-05-22T12:19:25;96472.41;;;30.18;33.50
3150;BME280;32503;47.748;8.960;2023-05-22T12:21:53;96473.47;;;30.63;31.75
3150;BME280;32503;47.748;8.960;2023-05-22T12:24:21;96467.59;;;30.99;31.28
3150;BME280;32503;47.748;8.960;2023-05-22T12:26:49;96462.53;;;30.97;29.24
3150;BME280;32503;47.748;8.960;2023-05-22T12:29:16;96467.63;;;30.61;29.93
3150;BME280;32503;47.748;8.960;2023-05-22T12:31:44;96463.44;;;30.83;31.13
3150;BME280;32503;47.748;8.960;2023-05-22T12:34:12;96456.47;;;31.05;31.44
3150;BME280;32503;47.748;8.960;2023-05-22T12:36:42;96461.59;;;31.29;31.66
3150;BME280;32503;47.748;8.960;2023-05-22T12:39:11;96457.13;;;31.54;31.77
3150;BME280;32503;47.748;8.960;2023-05-22T12:41:39;96457.38;;;31.73;31.65
3150;BME280;32503;47.748;8.960;2023-05-22T12:44:06;96453.84;;;31.89;31.59
3150;BME280;32503;47.748;8.960;2023-05-22T12:46:34;96459.94;;;31.71;30.76
3150;BME280;32503;47.748;8.960;2023-05-22T12:49:01;96453.59;;;31.87;31.19
3150;BME280;32503;47.748;8.960;2023-05-22T12:51:30;96452.06;;;32.03;31.08
3150;BME280;32503;47.748;8.960;2023-05-22T12:53:58;96447.78;;;32.19;30.34
3150;BME280;32503;47.748;8.960;2023-05-22T12:56:26;96445.47;;;32.18;29.50
3150;BME280;32503;47.748;8.960;2023-05-22T12:58:55;96452.06;;;32.26;29.79
3150;BME280;32503;47.748;8.960;2023-05-22T13:01:22;96462.47;;;32.37;29.33
3150;BME280;32503;47.748;8.960;2023-05-22T13:03:50;96449.75;;;32.53;28.86
3150;BME280;32503;47.748;8.960;2023-05-22T13:06:17;96452.53;;;32.64;28.17
3150;BME280;32503;47.748;8.960;2023-05-22T13:08:45;96457.09;;;32.67;28.97
3150;BME280;32503;47.748;8.960;2023-05-22T13:11:12;96452.78;;;32.66;28.07
3150;BME280;32503;47.748;8.960;2023-05-22T13:13:39;96456.88;;;32.48;28.26
3150;BME280;32503;47.748;8.960;2023-05-22T13:16:08;96457.13;;;32.33;28.19
3150;BME280;32503;47.748;8.960;2023-05-22T13:18:35;96449.28;;;32.31;27.90